createdAt,value
2022-11-21T00:01:17.548Z,25.48
2022-11-21T00:03:45.407Z,27.05
2022-11-21T00:06:13.430Z,26.10
2022-11-21T00:08:41.370Z,26.75
2022-11-21T00:11:09.196Z,25.38
2022-11-21T00:13:37.374Z,23.70
2022-11-21T00:16:07.788Z,24.95
2022-11-21T00:18:36.350Z,25.90
2022-11-21T00:21:07.734Z,22.40
2022-11-21T00:23:35.595Z,24.83
2022-11-21T00:26:06.163Z,25.80
2022-11-21T00:28:34.190Z,22.48
2022-11-21T00:31:02.006Z,28.88
2022-11-21T00:33:31.274Z,23.70
2022-11-21T00:35:59.263Z,26.33
2022-11-21T00:38:28.634Z,22.60
2022-11-21T00:40:56.415Z,23.20
2022-11-21T00:43:24.068Z,22.83
2022-11-21T00:45:51.849Z,21.92
2022-11-21T00:48:19.645Z,22.05
2022-11-21T00:50:50.898Z,20.33
2022-11-21T00:53:18.804Z,20.48
2022-11-21T00:55:46.510Z,22.10
2022-11-21T00:58:14.218Z,22.90
2022-11-21T01:00:42.039Z,18.88
2022-11-21T01:03:09.864Z,21.75
2022-11-21T01:05:37.602Z,18.05
2022-11-21T01:08:07.195Z,19.67
2022-11-21T01:10:35.622Z,24.33
2022-11-21T01:13:03.420Z,22.98
2022-11-21T01:15:31.245Z,20.67
2022-11-21T01:17:58.988Z,22.00
2022-11-21T01:20:28.271Z,19.55
2022-11-21T01:22:56.102Z,23.70
2022-11-21T01:25:25.170Z,24.95
2022-11-21T01:27:53.021Z,22.45
2022-11-21T01:30:20.823Z,20.88
2022-11-21T01:32:50.063Z,20.35
2022-11-21T01:35:18.318Z,19.33
2022-11-21T01:37:47.917Z,23.42
2022-11-21T01:40:16.677Z,18.00
2022-11-21T01:42:56.075Z,24.25
2022-11-21T01:45:55.978Z,20.70
2022-11-21T01:48:28.623Z,21.98
2022-11-21T01:51:01.750Z,22.15
2022-11-21T01:53:29.667Z,20.10
2022-11-21T01:55:57.523Z,23.33
2022-11-21T01:58:27.245Z,24.27
2022-11-21T02:00:55.081Z,21.30
2022-11-21T02:03:26.225Z,21.42
2022-11-21T02:05:56.402Z,18.80
2022-11-21T02:08:26.128Z,20.42
2022-11-21T02:11:05.172Z,20.58
2022-11-21T02:13:34.372Z,18.50
2022-11-21T02:16:03.045Z,16.65
2022-11-21T02:18:30.961Z,16.70
2022-11-21T02:21:05.468Z,19.55
2022-11-21T02:23:40.590Z,16.73
2022-11-21T02:26:10.125Z,19.02
2022-11-21T02:28:38.170Z,17.08
2022-11-21T02:31:05.965Z,15.95
2022-11-21T02:33:33.716Z,17.33
2022-11-21T02:36:02.998Z,16.15
2022-11-21T02:38:34.184Z,16.38
2022-11-21T02:41:13.707Z,16.75
2022-11-21T02:43:45.880Z,17.35
2022-11-21T02:46:13.630Z,16.20
2022-11-21T02:48:41.551Z,18.98
2022-11-21T02:51:09.842Z,19.63
2022-11-21T02:53:37.738Z,16.48
2022-11-21T02:56:05.811Z,20.15
2022-11-21T02:58:35.153Z,19.65
2022-11-21T03:01:02.959Z,18.90
2022-11-21T03:03:30.689Z,19.27
2022-11-21T03:05:58.523Z,16.90
2022-11-21T03:08:26.226Z,15.93
2022-11-21T03:10:54.168Z,18.52
2022-11-21T03:13:21.887Z,17.50
2022-11-21T03:15:51.979Z,17.30
2022-11-21T03:18:19.743Z,14.07
2022-11-21T03:20:47.437Z,15.73
2022-11-21T03:23:15.143Z,15.65
2022-11-21T03:25:42.966Z,15.13
2022-11-21T03:28:10.668Z,15.77
2022-11-21T03:30:38.462Z,14.90
2022-11-21T03:33:07.647Z,16.77
2022-11-21T03:35:35.385Z,14.82
2022-11-21T03:38:03.090Z,16.88
2022-11-21T03:40:30.931Z,16.58
2022-11-21T03:42:58.699Z,14.38
2022-11-21T03:45:26.555Z,17.20
2022-11-21T03:47:54.281Z,20.30
2022-11-21T03:50:23.395Z,13.82
2022-11-21T03:52:51.200Z,15.10
2022-11-21T03:55:18.919Z,13.43
2022-11-21T03:57:46.663Z,15.23
2022-11-21T04:00:15.666Z,12.07
2022-11-21T04:02:43.404Z,15.35
2022-11-21T04:05:11.153Z,15.77
2022-11-21T04:07:40.293Z,16.45
2022-11-21T04:10:08.769Z,15.70
2022-11-21T04:12:36.466Z,14.93
2022-11-21T04:15:09.318Z,14.07
2022-11-21T04:17:39.947Z,15.35
2022-11-21T04:20:08.907Z,16.48
2022-11-21T04:22:36.657Z,18.70
2022-11-21T04:25:06.603Z,15.77
2022-11-21T04:27:34.357Z,15.52
2022-11-21T04:30:02.151Z,15.27
2022-11-21T04:32:29.986Z,14.95
2022-11-21T04:34:57.683Z,13.55
2022-11-21T04:37:25.465Z,13.80
2022-11-21T04:39:53.410Z,15.55
2022-11-21T04:42:22.482Z,15.80
2022-11-21T04:44:50.203Z,16.42
2022-11-21T04:47:17.959Z,13.57
2022-11-21T04:49:45.621Z,15.30
2022-11-21T04:52:13.399Z,19.33
2022-11-21T04:54:41.102Z,13.88
2022-11-21T04:57:08.917Z,15.60
2022-11-21T04:59:38.079Z,17.88
2022-11-21T05:02:05.943Z,19.95
2022-11-21T05:04:33.639Z,15.55
2022-11-21T05:07:01.376Z,14.15
2022-11-21T05:09:31.174Z,14.95
2022-11-21T05:12:16.471Z,14.45
2022-11-21T05:14:45.553Z,18.25
2022-11-21T05:17:13.344Z,15.98
2022-11-21T05:19:41.181Z,14.90
2022-11-21T05:22:09.055Z,14.38
2022-11-21T05:24:36.896Z,14.02
2022-11-21T05:27:04.847Z,14.63
2022-11-21T05:29:33.134Z,14.75
2022-11-21T05:32:02.215Z,15.75
2022-11-21T05:34:30.233Z,17.77
2022-11-21T05:36:59.182Z,16.50
2022-11-21T05:39:27.601Z,14.93
2022-11-21T05:41:59.914Z,21.30
2022-11-21T05:44:29.962Z,19.30
2022-11-21T05:46:57.995Z,17.45
2022-11-21T05:49:27.335Z,14.52
2022-11-21T05:51:55.107Z,19.90
2022-11-21T05:54:22.802Z,16.20
2022-11-21T05:56:50.568Z,17.58
2022-11-21T05:59:18.371Z,19.40
2022-11-21T06:02:03.578Z,14.27
2022-11-21T06:04:32.714Z,16.42
2022-11-21T06:07:00.574Z,21.08
2022-11-21T06:09:28.401Z,17.23
2022-11-21T06:11:56.105Z,23.42
2022-11-21T06:14:23.854Z,17.20
2022-11-21T06:16:51.763Z,19.05
2022-11-21T06:19:19.478Z,21.02
2022-11-21T06:21:48.539Z,18.67
2022-11-21T06:24:21.789Z,19.90
2022-11-21T06:26:50.089Z,16.60
2022-11-21T06:29:17.880Z,28.40
2022-11-21T06:31:45.589Z,24.25
2022-11-21T06:34:13.398Z,18.27
2022-11-21T06:36:41.156Z,20.00
2022-11-21T06:39:10.215Z,23.23
2022-11-21T06:41:37.923Z,18.95
2022-11-21T06:44:05.946Z,26.50
2022-11-21T06:46:33.676Z,25.95
2022-11-21T06:49:01.361Z,20.90
2022-11-21T06:51:29.144Z,27.00
2022-11-21T06:53:59.026Z,23.95
2022-11-21T06:56:32.793Z,19.35
2022-11-21T06:59:00.794Z,24.10
2022-11-21T07:01:28.578Z,20.42
2022-11-21T07:03:56.696Z,25.70
2022-11-21T07:06:24.950Z,22.90
2022-11-21T07:09:17.486Z,19.33
2022-11-21T07:11:43.644Z,21.13
2022-11-21T07:14:10.468Z,23.60
2022-11-21T07:19:05.830Z,25.38
2022-11-21T07:21:33.682Z,26.98
2022-11-21T07:24:01.482Z,26.05
2022-11-21T07:26:29.212Z,21.38
2022-11-21T07:28:59.575Z,22.65
2022-11-21T07:31:27.386Z,29.08
2022-11-21T07:33:55.126Z,30.83
2022-11-21T07:36:22.823Z,33.88
2022-11-21T07:38:50.566Z,31.70
2022-11-21T07:41:18.326Z,29.58
2022-11-21T07:43:46.077Z,30.33
2022-11-21T07:46:15.130Z,25.27
2022-11-21T07:48:42.930Z,23.80
2022-11-21T07:51:11.134Z,33.25
2022-11-21T07:53:38.872Z,28.73
2022-11-21T07:56:09.393Z,37.35
2022-11-21T07:58:37.170Z,27.58
2022-11-21T08:01:06.219Z,28.15
2022-11-21T08:03:35.665Z,31.63
2022-11-21T08:06:05.212Z,25.58
2022-11-21T08:08:32.958Z,25.45
2022-11-21T08:11:05.606Z,27.95
2022-11-21T08:13:33.877Z,28.95
2022-11-21T08:16:03.906Z,26.02
2022-11-21T08:18:31.994Z,29.55
2022-11-21T08:21:03.660Z,28.70
2022-11-21T08:23:31.992Z,29.10
2022-11-21T08:26:00.075Z,29.58
2022-11-21T08:28:27.850Z,29.77
2022-11-21T08:30:55.655Z,33.83
2022-11-21T08:33:23.441Z,24.00
2022-11-21T08:35:51.191Z,30.20
2022-11-21T08:38:20.374Z,38.45
2022-11-21T08:41:09.452Z,31.60
2022-11-21T08:43:39.993Z,33.13
2022-11-21T08:46:08.409Z,31.60
2022-11-21T08:48:36.185Z,26.67
2022-11-21T08:51:04.011Z,20.80
2022-11-21T08:53:33.156Z,25.80
2022-11-21T08:56:04.156Z,23.42
2022-11-21T08:58:32.251Z,28.58
2022-11-21T09:01:00.472Z,29.30
2022-11-21T09:03:31.264Z,25.75
2022-11-21T09:06:00.314Z,20.63
2022-11-21T09:08:28.152Z,24.23
2022-11-21T09:10:57.272Z,25.85
2022-11-21T09:13:25.157Z,26.40
2022-11-21T09:16:10.226Z,29.10
2022-11-21T09:18:38.017Z,22.75
2022-11-21T09:21:05.777Z,31.77
2022-11-21T09:23:33.561Z,24.40
2022-11-21T09:26:02.780Z,24.55
2022-11-21T09:28:30.445Z,26.05
2022-11-21T09:30:59.153Z,28.45
2022-11-21T09:33:27.014Z,25.90
2022-11-21T09:35:54.752Z,23.58
2022-11-21T09:38:24.195Z,21.73
2022-11-21T09:40:52.380Z,20.90
2022-11-21T09:43:35.968Z,23.27
2022-11-21T09:46:10.506Z,20.67
2022-11-21T09:48:49.415Z,30.15
2022-11-21T09:51:20.330Z,26.95
2022-11-21T09:53:56.190Z,30.77
2022-11-21T09:56:25.037Z,22.52
2022-11-21T09:59:08.323Z,26.63
2022-11-21T10:01:37.618Z,33.65
2022-11-21T10:04:06.412Z,26.67
2022-11-21T10:06:41.744Z,22.15
2022-11-21T10:09:19.809Z,29.35
2022-11-21T10:12:12.209Z,27.55
2022-11-21T10:14:53.450Z,26.23
2022-11-21T10:17:30.246Z,26.83
2022-11-21T10:20:15.721Z,25.38
2022-11-21T10:23:01.873Z,26.23
2022-11-21T10:25:37.385Z,22.30
2022-11-21T10:28:11.967Z,22.35
2022-11-21T10:30:44.961Z,22.40
2022-11-21T10:33:19.214Z,23.15
2022-11-21T10:35:52.170Z,25.45
2022-11-21T10:38:23.532Z,24.75
2022-11-21T10:40:56.005Z,21.33
2022-11-21T10:43:52.983Z,21.40
2022-11-21T10:46:22.143Z,21.30
2022-11-21T10:48:57.681Z,20.95
2022-11-21T10:51:38.110Z,24.65
2022-11-21T10:54:25.528Z,22.05
2022-11-21T10:56:55.019Z,21.20
2022-11-21T10:59:30.836Z,20.80
2022-11-21T11:02:02.195Z,20.35
2022-11-21T11:04:35.671Z,20.10
2022-11-21T11:07:24.606Z,21.27
2022-11-21T11:09:53.429Z,21.58
2022-11-21T11:12:46.975Z,23.45
2022-11-21T11:15:23.306Z,23.30
2022-11-21T11:17:56.445Z,17.80
2022-11-21T11:20:38.766Z,19.67
2022-11-21T11:23:27.120Z,20.75
2022-11-21T11:25:57.006Z,20.63
2022-11-21T11:28:25.542Z,25.17
2022-11-21T11:30:55.671Z,19.90
2022-11-21T11:33:36.998Z,19.25
2022-11-21T11:36:16.331Z,22.77
2022-11-21T11:38:49.825Z,21.80
2022-11-21T11:41:53.944Z,20.38
2022-11-21T11:44:50.720Z,22.05
2022-11-21T11:47:34.023Z,21.65
2022-11-21T11:50:15.024Z,21.63
2022-11-21T11:52:52.121Z,19.85
2022-11-21T11:55:25.491Z,23.23
2022-11-21T11:57:57.419Z,22.40
2022-11-21T12:00:31.015Z,22.67
2022-11-21T12:03:06.038Z,18.15
2022-11-21T12:05:38.188Z,19.67
2022-11-21T12:11:30.887Z,19.73
2022-11-21T12:14:06.843Z,20.30
2022-11-21T12:16:37.441Z,22.77
2022-11-21T12:19:13.689Z,22.60
2022-11-21T12:21:42.922Z,20.75
2022-11-21T12:24:12.546Z,21.00
2022-11-21T12:26:50.218Z,23.10
2022-11-21T12:29:47.033Z,20.02
2022-11-21T12:32:33.344Z,21.00
2022-11-21T12:35:30.247Z,22.27
2022-11-21T12:38:13.229Z,20.70
2022-11-21T12:40:53.540Z,21.50
2022-11-21T12:43:31.031Z,20.98
2022-11-21T12:46:08.453Z,22.60
2022-11-21T12:49:06.938Z,19.92
2022-11-21T12:52:05.504Z,29.20
2022-11-21T12:54:56.677Z,30.70
2022-11-21T12:57:37.073Z,27.17
2022-11-21T13:00:14.250Z,34.15
2022-11-21T13:03:02.917Z,30.23
2022-11-21T13:05:33.694Z,30.02
2022-11-21T13:08:04.667Z,32.70
2022-11-21T13:10:34.070Z,33.22
2022-11-21T13:13:11.780Z,34.22
2022-11-21T13:15:45.012Z,36.58
2022-11-21T13:18:20.304Z,25.75
2022-11-21T13:20:50.403Z,29.13
2022-11-21T13:23:45.026Z,28.90
2022-11-21T13:26:51.481Z,28.35
2022-11-21T13:29:19.709Z,29.55
2022-11-21T13:31:48.066Z,31.00
2022-11-21T13:34:37.577Z,28.42
2022-11-21T13:37:06.510Z,26.92
2022-11-21T13:39:39.299Z,25.25
2022-11-21T13:42:33.003Z,29.48
2022-11-21T13:45:25.203Z,26.35
2022-11-21T13:48:45.415Z,26.75
2022-11-21T13:51:39.270Z,25.48
2022-11-21T13:54:36.448Z,27.92
2022-11-21T13:57:21.422Z,23.73
2022-11-21T14:00:03.634Z,23.45
2022-11-21T14:02:55.422Z,28.88
2022-11-21T14:05:56.715Z,22.55
2022-11-21T14:08:26.804Z,27.52
2022-11-21T14:10:56.343Z,26.88
2022-11-21T14:13:29.386Z,26.15
2022-11-21T14:16:24.969Z,22.27
2022-11-21T14:18:54.190Z,27.60
2022-11-21T14:21:26.782Z,34.67
2022-11-21T14:23:57.484Z,34.85
2022-11-21T14:26:26.331Z,27.90
2022-11-21T14:29:17.591Z,22.92
2022-11-21T14:31:48.897Z,21.15
2022-11-21T14:34:26.534Z,26.30
2022-11-21T14:36:55.059Z,21.50
2022-11-21T14:39:37.357Z,23.48
2022-11-21T14:42:13.880Z,20.45
2022-11-21T14:44:43.300Z,22.95
2022-11-21T14:47:21.203Z,24.70
2022-11-21T14:49:54.117Z,20.13
2022-11-21T14:52:27.484Z,25.75
2022-11-21T14:55:28.619Z,29.45
2022-11-21T14:57:45.883Z,27.08
2022-11-21T15:00:43.119Z,25.35
2022-11-21T15:03:05.814Z,24.05
2022-11-21T15:06:00.874Z,22.88
2022-11-21T15:11:13.040Z,24.42
2022-11-21T15:14:12.150Z,23.63
2022-11-21T15:16:31.118Z,23.02
2022-11-21T15:18:58.928Z,22.83
2022-11-21T15:21:26.726Z,27.38
2022-11-21T15:23:56.511Z,28.40
2022-11-21T15:26:30.537Z,21.23
2022-11-21T15:28:59.852Z,24.55
2022-11-21T15:31:27.973Z,24.73
2022-11-21T15:37:03.407Z,27.50
2022-11-21T15:39:31.260Z,27.50
2022-11-21T15:42:29.598Z,26.98
2022-11-21T15:45:02.275Z,24.63
2022-11-21T15:47:30.134Z,26.33
2022-11-21T15:49:59.191Z,30.50
2022-11-21T15:52:26.936Z,27.02
2022-11-21T15:54:54.633Z,30.05
2022-11-21T15:57:22.817Z,32.95
2022-11-21T15:59:50.784Z,29.25
2022-11-21T16:02:18.542Z,37.38
2022-11-21T16:04:46.338Z,39.00
2022-11-21T16:07:15.510Z,34.25
2022-11-21T16:09:44.816Z,37.03
2022-11-21T16:12:12.554Z,32.22
2022-11-21T16:14:40.293Z,39.78
2022-11-21T16:17:07.978Z,36.55
2022-11-21T16:19:35.850Z,35.72
2022-11-21T16:22:03.618Z,40.55
2022-11-21T16:24:32.649Z,39.42
2022-11-21T16:27:02.301Z,29.38
2022-11-21T16:29:30.635Z,35.15
2022-11-21T16:31:58.727Z,40.60
2022-11-21T16:34:27.345Z,38.50
2022-11-21T16:36:55.902Z,37.47
2022-11-21T16:39:23.582Z,42.08
2022-11-21T16:41:52.702Z,49.75
2022-11-21T16:44:20.414Z,44.20
2022-11-21T16:46:49.146Z,42.60
2022-11-21T16:49:17.063Z,52.28
2022-11-21T16:51:46.160Z,41.45
2022-11-21T16:54:14.113Z,47.45
2022-11-21T16:56:41.838Z,47.17
2022-11-21T16:59:10.896Z,55.00
2022-11-21T17:01:38.738Z,48.72
2022-11-21T17:04:06.653Z,45.92
2022-11-21T17:06:34.374Z,33.25
2022-11-21T17:09:02.390Z,44.25
2022-11-21T17:11:31.923Z,40.92
2022-11-21T17:14:02.144Z,46.38
2022-11-21T17:16:32.043Z,47.53
2022-11-21T17:19:01.543Z,49.45
2022-11-21T17:21:30.050Z,49.15
2022-11-21T17:23:58.422Z,41.70
2022-11-21T17:26:27.937Z,48.13
2022-11-21T17:28:57.679Z,46.28
2022-11-21T17:31:25.822Z,49.20
2022-11-21T17:33:57.105Z,51.95
2022-11-21T17:36:27.007Z,50.20
2022-11-21T17:38:54.982Z,44.65
2022-11-21T17:41:25.170Z,47.55
2022-11-21T17:43:55.597Z,45.95
2022-11-21T17:46:25.152Z,40.95
2022-11-21T17:48:57.101Z,42.22
2022-11-21T17:51:29.255Z,42.45
2022-11-21T17:53:57.968Z,41.50
2022-11-21T17:56:27.865Z,40.67
2022-11-21T17:58:56.649Z,41.83
2022-11-21T18:01:24.624Z,38.95
2022-11-21T18:03:56.151Z,39.05
2022-11-21T18:06:24.863Z,36.55
2022-11-21T18:08:54.164Z,42.53
2022-11-21T18:11:22.938Z,41.38
2022-11-21T18:13:51.126Z,38.60
2022-11-21T18:16:20.872Z,35.90
2022-11-21T18:18:49.766Z,43.55
2022-11-21T18:21:20.076Z,37.17
2022-11-21T18:23:48.148Z,40.42
2022-11-21T18:26:20.526Z,39.67
2022-11-21T18:28:57.258Z,41.13
2022-11-21T18:31:35.921Z,45.03
2022-11-21T18:34:06.677Z,34.97
2022-11-21T18:36:34.779Z,42.88
2022-11-21T18:39:08.831Z,46.70
2022-11-21T18:41:43.112Z,42.47
2022-11-21T18:44:12.668Z,47.17
2022-11-21T18:46:42.508Z,42.92
2022-11-21T18:49:10.259Z,31.55
2022-11-21T18:51:38.008Z,40.92
2022-11-21T18:54:08.268Z,30.70
2022-11-21T18:56:38.069Z,44.20
2022-11-21T18:59:07.483Z,38.55
2022-11-21T19:01:36.755Z,41.35
2022-11-21T19:04:05.063Z,40.85
2022-11-21T19:06:32.839Z,34.38
2022-11-21T19:09:00.839Z,27.60
2022-11-21T19:11:30.584Z,32.40
2022-11-21T19:13:59.278Z,33.90
2022-11-21T19:16:30.838Z,38.65
2022-11-21T19:21:47.091Z,37.47
2022-11-21T19:24:15.556Z,38.08
2022-11-21T19:26:43.821Z,38.85
2022-11-21T19:29:11.592Z,40.03
2022-11-21T19:31:45.216Z,39.67
2022-11-21T19:34:14.008Z,29.10
2022-11-21T19:36:42.055Z,48.70
2022-11-21T19:39:10.423Z,40.72
2022-11-21T19:41:38.118Z,31.48
2022-11-21T19:44:06.367Z,38.25
2022-11-21T19:46:36.199Z,54.22
2022-11-21T19:49:06.482Z,38.53
2022-11-21T19:51:36.308Z,34.33
2022-11-21T19:54:04.598Z,44.08
2022-11-21T19:56:32.494Z,38.28
2022-11-21T19:59:00.257Z,45.20
2022-11-21T20:01:29.885Z,31.95
2022-11-21T20:03:59.390Z,33.17
2022-11-21T20:06:30.818Z,36.83
2022-11-21T20:09:00.847Z,34.47
2022-11-21T20:11:30.103Z,38.85
2022-11-21T20:13:58.349Z,32.30
2022-11-21T20:16:28.412Z,36.83
2022-11-21T20:18:58.454Z,32.53
2022-11-21T20:21:28.095Z,35.28
2022-11-21T20:23:56.364Z,31.33
2022-11-21T20:26:24.233Z,35.15
2022-11-21T20:28:53.108Z,29.65
2022-11-21T20:31:22.981Z,31.38
2022-11-21T20:33:52.268Z,33.45
2022-11-21T20:36:22.097Z,30.58
2022-11-21T20:38:53.887Z,36.13
2022-11-21T20:41:22.909Z,33.55
2022-11-21T20:44:41.721Z,30.33
2022-11-21T20:46:41.989Z,26.40
2022-11-21T20:49:10.030Z,36.60
2022-11-21T20:54:27.526Z,31.98
2022-11-21T20:56:55.585Z,48.08
2022-11-21T20:59:23.943Z,41.40
2022-11-21T21:01:51.887Z,38.58
2022-11-21T21:04:19.793Z,41.03
2022-11-21T21:06:47.522Z,40.10
2022-11-21T21:09:15.310Z,34.50
2022-11-21T21:11:51.952Z,30.95
2022-11-21T21:14:20.808Z,53.35
2022-11-21T21:16:48.515Z,55.22
2022-11-21T21:19:16.323Z,55.63
2022-11-21T21:21:44.156Z,53.28
2022-11-21T21:24:12.623Z,48.92
2022-11-21T21:26:43.536Z,39.35
2022-11-21T21:29:14.792Z,35.58
2022-11-21T21:31:50.118Z,33.63
2022-11-21T21:36:46.899Z,27.65
2022-11-21T21:39:14.753Z,23.95
2022-11-21T21:41:44.516Z,27.23
2022-11-21T21:44:14.092Z,28.05
2022-11-21T21:46:41.991Z,25.33
2022-11-21T21:49:09.766Z,28.33
2022-11-21T21:51:37.835Z,28.92
2022-11-21T21:54:06.432Z,26.13
2022-11-21T21:56:34.631Z,23.77
2022-11-21T21:59:02.410Z,19.77
2022-11-21T22:01:33.390Z,24.95
2022-11-21T22:04:03.171Z,23.00
2022-11-21T22:06:33.389Z,26.27
2022-11-21T22:09:01.284Z,26.20
2022-11-21T22:11:30.699Z,25.92
2022-11-21T22:13:59.918Z,25.20
2022-11-21T22:16:28.802Z,26.38
2022-11-21T22:18:58.300Z,25.80
2022-11-21T22:21:27.892Z,29.77
2022-11-21T22:24:23.590Z,27.83
2022-11-21T22:26:44.514Z,25.08
2022-11-21T22:29:12.179Z,26.67
2022-11-21T22:31:39.927Z,27.88
2022-11-21T22:34:10.933Z,24.55
2022-11-21T22:36:38.645Z,23.60
2022-11-21T22:39:06.453Z,24.60
2022-11-21T22:41:34.155Z,26.52
2022-11-21T22:44:01.895Z,24.65
2022-11-21T22:46:30.846Z,25.70
2022-11-21T22:48:59.395Z,26.08
2022-11-21T22:51:30.158Z,24.48
2022-11-21T22:53:58.495Z,26.50
2022-11-21T22:56:27.113Z,21.08
2022-11-21T22:58:54.915Z,24.20
2022-11-21T23:01:24.474Z,24.63
2022-11-21T23:03:53.399Z,23.25
2022-11-21T23:06:23.494Z,21.35
2022-11-21T23:08:54.166Z,25.60
2022-11-21T23:11:26.074Z,22.13
2022-11-21T23:13:55.455Z,20.73
2022-11-21T23:16:24.080Z,18.73
2022-11-21T23:18:53.734Z,22.33
2022-11-21T23:21:21.807Z,24.38
2022-11-21T23:23:49.573Z,23.33
2022-11-21T23:26:18.801Z,21.02
2022-11-21T23:28:46.651Z,20.63
2022-11-21T23:31:14.541Z,18.02
2022-11-21T23:33:42.339Z,19.45
2022-11-21T23:36:10.192Z,19.30
2022-11-21T23:38:37.941Z,21.27
2022-11-21T23:41:05.729Z,17.38
2022-11-21T23:43:35.104Z,19.80
2022-11-21T23:46:02.842Z,21.02
2022-11-21T23:48:30.586Z,21.05
2022-11-21T23:50:58.341Z,18.55
2022-11-21T23:53:26.071Z,21.13
2022-11-21T23:55:53.815Z,15.02
2022-11-21T23:58:21.706Z,9.13
